Time;durP1;ratioP1;P1;durP2;ratioP2;P2;SDS_P1;SDS_P2;PMS_P1;PMS_P2;Temp;Humidity;BMP_temperature;BMP_pressure;BME280_temperature;BME280_humidity;BME280_pressure;Samples;Min_cycle;Max_cycle;Signal;HPM_P1;HPM_P2
2023/02/08 00:01:59;;;;;;;0.90;0.90;;;-2.00;90.80;;;;;;5036009;28;20201;-69
2023/02/08 00:04:25;;;;;;;0.70;0.70;;;-2.00;90.30;;;;;;5036649;28;20174;-69
2023/02/08 00:06:50;;;;;;;1.07;1.07;;;-2.10;90.00;;;;;;5036781;28;20659;-69
2023/02/08 00:09:16;;;;;;;0.50;0.50;;;-2.10;88.00;;;;;;5036705;28;20545;-69
2023/02/08 00:11:41;;;;;;;1.90;1.90;;;-2.10;86.70;;;;;;5036341;28;20690;-69
2023/02/08 00:14:07;;;;;;;0.40;0.40;;;-2.20;84.90;;;;;;5036632;28;20167;-69
2023/02/08 00:16:33;;;;;;;0.40;0.40;;;-2.40;85.00;;;;;;5036332;28;20201;-69
2023/02/08 00:18:59;;;;;;;0.40;0.40;;;-2.20;83.70;;;;;;5036437;28;20313;-69
2023/02/08 00:21:26;;;;;;;0.97;0.97;;;-2.30;82.10;;;;;;5036257;28;20449;-69
2023/02/08 00:23:51;;;;;;;0.30;0.30;;;-2.50;81.70;;;;;;5036445;28;20527;-69
2023/02/08 00:26:17;;;;;;;0.40;0.40;;;-2.50;79.70;;;;;;5036215;28;20229;-68
2023/02/08 00:28:43;;;;;;;0.40;0.40;;;-2.40;78.20;;;;;;5036364;28;20674;-69
2023/02/08 00:31:08;;;;;;;0.30;0.30;;;-2.40;78.90;;;;;;5036097;28;20195;-69
2023/02/08 00:33:34;;;;;;;0.40;0.40;;;-2.40;76.60;;;;;;5036178;28;20416;-69
2023/02/08 00:36:01;;;;;;;0.40;0.40;;;-2.30;76.10;;;;;;5035965;28;20171;-69
2023/02/08 00:38:28;;;;;;;0.45;0.45;;;-2.40;74.80;;;;;;5036098;28;20241;-69
2023/02/08 00:40:54;;;;;;;0.60;0.60;;;-2.40;75.60;;;;;;5036109;28;20199;-69
2023/02/08 00:43:19;;;;;;;0.40;0.40;;;-2.20;78.10;;;;;;5035885;28;20224;-69
2023/02/08 00:45:45;;;;;;;0.93;0.93;;;-2.20;73.60;;;;;;5035682;28;20236;-69
2023/02/08 00:48:11;;;;;;;0.97;0.67;;;-2.00;73.90;;;;;;5035910;28;20593;-69
2023/02/08 00:50:36;;;;;;;0.30;0.30;;;-2.00;71.60;;;;;;5035714;28;20187;-69
2023/02/08 00:53:02;;;;;;;0.30;0.30;;;-2.10;70.90;;;;;;5035758;28;20203;-69
2023/02/08 00:55:28;;;;;;;0.50;0.50;;;-2.10;69.50;;;;;;5035623;28;20262;-69
2023/02/08 00:57:54;;;;;;;0.70;0.70;;;-2.00;73.30;;;;;;5035796;28;20410;-68
2023/02/08 01:00:19;;;;;;;0.30;0.30;;;-2.10;69.80;;;;;;5035544;28;20191;-69
2023/02/08 01:02:45;;;;;;;0.40;0.40;;;-1.90;67.90;;;;;;5035806;28;20202;-69
2023/02/08 01:05:11;;;;;;;0.40;0.40;;;-1.90;71.70;;;;;;5035305;28;20245;-69
2023/02/08 01:07:37;;;;;;;0.30;0.30;;;-2.00;67.70;;;;;;5035401;28;20171;-69
2023/02/08 01:10:11;;;;;;;1.02;1.02;;;-1.90;66.70;;;;;;5035517;28;20273;-69
2023/02/08 01:12:37;;;;;;;0.40;0.40;;;-1.90;63.00;;;;;;5034506;28;20182;-69
2023/02/08 01:15:03;;;;;;;0.50;0.50;;;-1.80;63.90;;;;;;5035167;28;20175;-69
2023/02/08 01:17:28;;;;;;;1.63;1.63;;;-1.60;65.80;;;;;;5035550;28;20767;-69
2023/02/08 01:19:54;;;;;;;0.40;0.40;;;-1.60;60.60;;;;;;5035285;28;20199;-69
2023/02/08 01:22:19;;;;;;;0.43;0.43;;;-1.60;60.60;;;;;;5035307;28;20171;-69
2023/02/08 01:24:45;;;;;;;2.20;0.70;;;-1.60;65.10;;;;;;5035040;28;20198;-69
2023/02/08 01:27:11;;;;;;;0.37;0.37;;;-1.70;64.30;;;;;;5035135;28;20660;-69
2023/02/08 01:29:36;;;;;;;0.90;0.87;;;-1.80;60.50;;;;;;5035038;28;20191;-69
2023/02/08 01:32:02;;;;;;;0.40;0.40;;;-1.70;59.50;;;;;;5035030;28;20525;-69
2023/02/08 01:34:27;;;;;;;0.40;0.40;;;-1.60;63.40;;;;;;5034919;28;20167;-69
2023/02/08 01:36:53;;;;;;;0.40;0.40;;;-1.50;60.30;;;;;;5033847;28;20176;-69
2023/02/08 01:39:19;;;;;;;4.30;3.23;;;-1.50;63.00;;;;;;5034883;28;20656;-69
2023/02/08 01:41:45;;;;;;;0.40;0.40;;;-1.50;63.60;;;;;;5034955;28;20183;-69
2023/02/08 01:44:11;;;;;;;0.47;0.47;;;-1.50;61.60;;;;;;5035030;28;20174;-69
2023/02/08 01:46:38;;;;;;;2.37;2.23;;;-1.50;63.30;;;;;;5034605;28;20211;-69
2023/02/08 01:49:12;;;;;;;0.30;0.30;;;-1.50;59.90;;;;;;5034785;28;20233;-69
2023/02/08 01:51:43;;;;;;;0.40;0.40;;;-1.40;59.90;;;;;;5034579;28;20186;-69
2023/02/08 01:54:11;;;;;;;0.88;0.88;;;-1.40;58.40;;;;;;5034801;28;20178;-69
2023/02/08 01:56:42;;;;;;;0.50;0.50;;;-1.50;59.50;;;;;;5034429;28;20568;-69
2023/02/08 01:59:16;;;;;;;0.47;0.47;;;-1.40;58.00;;;;;;5034643;28;20173;-69
2023/02/08 02:01:45;;;;;;;0.30;0.30;;;-1.40;57.60;;;;;;5033178;28;20312;-69
2023/02/08 02:04:11;;;;;;;0.45;0.45;;;-1.30;55.40;;;;;;5034366;28;20250;-68
2023/02/08 02:06:42;;;;;;;0.40;0.40;;;-1.30;55.30;;;;;;5034294;28;20230;-69
2023/02/08 02:09:11;;;;;;;0.40;0.40;;;-1.30;54.50;;;;;;5034367;28;20647;-69
2023/02/08 02:11:37;;;;;;;0.40;0.40;;;-1.20;54.80;;;;;;5034129;28;20301;-68
2023/02/08 02:14:03;;;;;;;0.40;0.40;;;-1.20;54.50;;;;;;5034488;28;20213;-69
2023/02/08 02:16:29;;;;;;;1.67;0.87;;;-1.20;53.70;;;;;;5034019;28;20409;-69
2023/02/08 02:18:55;;;;;;;0.40;0.40;;;-1.30;58.60;;;;;;5034274;28;20767;-69
2023/02/08 02:21:44;;;;;;;0.60;0.60;;;-1.30;56.00;;;;;;5034051;28;20187;-69
2023/02/08 02:24:28;;;;;;;3.28;2.30;;;-1.40;56.30;;;;;;5034304;28;20409;-69
2023/02/08 02:27:08;;;;;;;0.52;0.52;;;-1.50;56.30;;;;;;5034252;28;20647;-69
2023/02/08 02:30:08;;;;;;;0.40;0.40;;;-1.50;56.80;;;;;;5034154;28;20220;-69
2023/02/08 02:33:03;;;;;;;0.40;0.40;;;-1.50;55.20;;;;;;5034187;28;20164;-69
2023/02/08 02:35:39;;;;;;;0.70;0.70;;;-1.40;54.80;;;;;;5028674;28;20241;-69
2023/02/08 02:38:25;;;;;;;0.40;0.40;;;-1.30;59.10;;;;;;5034047;28;20183;-69
2023/02/08 02:43:40;;;;;;;0.40;0.40;;;-1.30;58.80;;;;;;5033850;28;20190;-69
2023/02/08 02:44:08;;;;;;;0.43;0.43;;;-1.30;54.40;;;;;;5033722;28;20643;-69
2023/02/08 02:46:39;;;;;;;1.70;1.20;;;-1.30;58.00;;;;;;5033507;28;20248;-69
2023/02/08 02:49:23;;;;;;;0.30;0.30;;;-1.40;59.10;;;;;;5033922;28;20167;-69
2023/02/08 02:52:01;;;;;;;0.30;0.30;;;-1.50;57.40;;;;;;5033431;28;20660;-69
2023/02/08 02:54:39;;;;;;;0.40;0.40;;;-1.40;55.80;;;;;;5033626;28;20167;-69
2023/02/08 02:57:09;;;;;;;0.40;0.40;;;-1.30;52.70;;;;;;5033644;28;20518;-69
2023/02/08 02:59:37;;;;;;;1.10;1.05;;;-1.20;52.30;;;;;;5033613;28;20177;-69
2023/02/08 03:02:03;;;;;;;0.30;0.30;;;-1.20;53.30;;;;;;5033739;28;20532;-69
2023/02/08 03:04:32;;;;;;;5.75;0.95;;;-1.20;51.80;;;;;;5033400;28;20569;-69
2023/02/08 03:07:19;;;;;;;0.30;0.30;;;-1.10;51.60;;;;;;5033629;28;20221;-69
2023/02/08 03:09:59;;;;;;;0.40;0.40;;;-1.10;51.10;;;;;;5033823;28;20176;-69
2023/02/08 03:12:42;;;;;;;0.50;0.50;;;-1.10;51.90;;;;;;5033415;28;20205;-69
2023/02/08 03:15:34;;;;;;;0.40;0.40;;;-1.20;50.80;;;;;;5033358;28;20208;-69
2023/02/08 03:18:18;;;;;;;0.40;0.40;;;-1.10;49.90;;;;;;5029470;28;20216;-69
2023/02/08 03:21:07;;;;;;;0.50;0.50;;;-0.90;50.00;;;;;;5033261;28;20191;-69
2023/02/08 03:24:07;;;;;;;0.40;0.40;;;-0.90;50.10;;;;;;5033266;28;20173;-69
2023/02/08 03:26:46;;;;;;;0.50;0.50;;;-0.90;50.10;;;;;;5026017;28;20228;-69
2023/02/08 03:29:40;;;;;;;0.40;0.40;;;-0.90;49.10;;;;;;5033480;28;20186;-69
2023/02/08 03:32:13;;;;;;;0.30;0.30;;;-1.00;49.60;;;;;;5031501;28;20678;-68
2023/02/08 03:35:16;;;;;;;0.40;0.40;;;-0.90;48.90;;;;;;5033306;28;20185;-69
2023/02/08 03:37:48;;;;;;;0.30;0.30;;;-1.00;50.10;;;;;;5028965;28;20269;-69
2023/02/08 03:40:24;;;;;;;0.30;0.30;;;-1.00;49.90;;;;;;5037230;28;20216;-68
2023/02/08 03:42:53;;;;;;;0.40;0.40;;;-1.00;50.70;;;;;;5037143;28;20190;-68
2023/02/08 03:45:20;;;;;;;0.40;0.40;;;-1.10;50.70;;;;;;5035755;28;20606;-69
2023/02/08 03:47:49;;;;;;;0.50;0.50;;;-1.10;49.80;;;;;;5036933;28;20182;-69
2023/02/08 03:50:16;;;;;;;0.40;0.40;;;-1.00;49.80;;;;;;5036924;28;20187;-69
2023/02/08 03:52:45;;;;;;;0.35;0.35;;;-1.10;50.30;;;;;;5037031;28;20180;-69
2023/02/08 03:55:15;;;;;;;0.40;0.40;;;-1.10;50.40;;;;;;5036641;28;20199;-69
2023/02/08 03:58:23;;;;;;;0.30;0.30;;;-1.20;50.60;;;;;;5036849;28;20175;-69
2023/02/08 04:00:58;;;;;;;0.40;0.40;;;-1.10;50.80;;;;;;5018667;28;20265;-69
2023/02/08 04:03:27;;;;;;;1.85;1.75;;;-1.10;50.90;;;;;;5036691;28;20515;-69
2023/02/08 04:05:54;;;;;;;0.40;0.40;;;-1.10;51.50;;;;;;5036513;28;20550;-69
2023/02/08 04:08:20;;;;;;;0.30;0.30;;;-1.20;50.90;;;;;;5036651;28;20176;-69
2023/02/08 04:10:47;;;;;;;0.52;0.52;;;-1.10;51.60;;;;;;5036582;28;20187;-69
2023/02/08 04:13:12;;;;;;;0.40;0.40;;;-1.10;51.40;;;;;;5036403;28;20660;-69
2023/02/08 04:15:38;;;;;;;0.40;0.40;;;-1.10;51.70;;;;;;5036389;28;20213;-69
2023/02/08 04:18:04;;;;;;;0.30;0.30;;;-1.20;51.10;;;;;;5036835;28;20261;-69
2023/02/08 04:20:30;;;;;;;0.40;0.40;;;-1.20;50.40;;;;;;5036320;28;20534;-69
2023/02/08 04:22:55;;;;;;;2.63;2.53;;;-1.20;51.10;;;;;;5036406;28;20190;-69
2023/02/08 04:25:21;;;;;;;2.07;2.07;;;-1.20;51.40;;;;;;5036083;28;20190;-69
2023/02/08 04:27:46;;;;;;;0.50;0.50;;;-1.30;51.70;;;;;;5036217;28;20518;-69
2023/02/08 04:30:12;;;;;;;0.40;0.40;;;-1.20;50.50;;;;;;5036326;28;20195;-69
2023/02/08 04:32:38;;;;;;;0.50;0.50;;;-1.20;50.50;;;;;;5036345;28;20182;-69
2023/02/08 04:35:04;;;;;;;0.40;0.40;;;-1.30;49.90;;;;;;5036175;28;20202;-69
2023/02/08 04:37:30;;;;;;;0.40;0.40;;;-1.20;50.60;;;;;;5036303;28;20542;-69
2023/02/08 04:39:55;;;;;;;0.40;0.40;;;-1.30;51.10;;;;;;5036049;28;20289;-69
2023/02/08 04:42:21;;;;;;;0.70;0.70;;;-1.30;51.00;;;;;;5035994;28;20488;-69
2023/02/08 04:44:47;;;;;;;0.40;0.40;;;-1.30;51.20;;;;;;5035819;28;20600;-69
2023/02/08 04:47:12;;;;;;;0.60;0.60;;;-1.30;50.20;;;;;;5034775;28;20167;-69
2023/02/08 04:49:38;;;;;;;0.40;0.40;;;-1.40;51.40;;;;;;5035826;28;20174;-69
2023/02/08 04:52:04;;;;;;;0.70;0.60;;;-1.40;50.60;;;;;;5035807;28;20178;-69
2023/02/08 04:54:29;;;;;;;0.30;0.30;;;-1.40;50.70;;;;;;5036008;28;20168;-69
2023/02/08 04:56:55;;;;;;;0.40;0.40;;;-1.40;51.80;;;;;;5035748;28;20826;-69
2023/02/08 04:59:21;;;;;;;0.40;0.40;;;-1.60;52.10;;;;;;5035913;28;20162;-69
2023/02/08 05:01:47;;;;;;;0.97;0.97;;;-1.70;52.10;;;;;;5035520;28;20458;-69
2023/02/08 05:04:12;;;;;;;0.40;0.40;;;-1.80;51.50;;;;;;5035655;28;20882;-68
2023/02/08 05:06:38;;;;;;;0.50;0.50;;;-1.80;52.10;;;;;;5035441;28;20195;-69
2023/02/08 05:09:07;;;;;;;0.43;0.43;;;-1.80;51.50;;;;;;5034357;28;20171;-69
2023/02/08 05:11:33;;;;;;;0.88;0.88;;;-1.70;50.70;;;;;;5035300;28;20187;-69
2023/02/08 05:13:59;;;;;;;0.35;0.35;;;-1.70;51.20;;;;;;5035589;28;20206;-69
2023/02/08 05:16:25;;;;;;;0.50;0.50;;;-1.70;50.70;;;;;;5035183;28;20202;-69
2023/02/08 05:18:50;;;;;;;0.40;0.40;;;-1.80;50.50;;;;;;5035425;28;20174;-69
2023/02/08 05:21:16;;;;;;;0.40;0.40;;;-1.70;50.10;;;;;;5035768;28;20249;-69
2023/02/08 05:23:42;;;;;;;0.30;0.30;;;-1.60;50.40;;;;;;5035568;28;20666;-69
2023/02/08 05:26:09;;;;;;;0.40;0.40;;;-1.70;50.80;;;;;;5033682;28;20287;-69
2023/02/08 05:28:36;;;;;;;0.40;0.40;;;-1.70;50.10;;;;;;5035336;28;20234;-69
2023/02/08 05:31:17;;;;;;;0.50;0.50;;;-1.80;50.90;;;;;;5034974;28;20203;-69
2023/02/08 05:33:43;;;;;;;0.40;0.40;;;-1.80;50.30;;;;;;5035144;28;20171;-69
2023/02/08 05:36:09;;;;;;;0.33;0.33;;;-1.80;50.90;;;;;;5034952;28;20512;-68
2023/02/08 05:38:34;;;;;;;0.50;0.50;;;-1.90;50.10;;;;;;5035091;28;20186;-69
2023/02/08 05:41:00;;;;;;;0.40;0.40;;;-1.90;50.30;;;;;;5035049;28;20679;-69
2023/02/08 05:43:26;;;;;;;0.60;0.60;;;-1.90;49.90;;;;;;5035277;28;20739;-69
2023/02/08 05:45:52;;;;;;;0.40;0.40;;;-1.80;49.50;;;;;;5033289;28;20199;-69
2023/02/08 05:48:17;;;;;;;0.60;0.60;;;-1.80;49.80;;;;;;5034995;28;20952;-68
2023/02/08 05:50:43;;;;;;;3.70;2.50;;;-1.70;49.80;;;;;;5034619;28;20195;-69
2023/02/08 05:53:09;;;;;;;0.50;0.50;;;-1.60;50.20;;;;;;5034613;28;20409;-69
2023/02/08 05:55:35;;;;;;;0.50;0.50;;;-1.60;49.00;;;;;;5034508;28;20604;-68
2023/02/08 05:58:00;;;;;;;0.50;0.50;;;-1.60;48.50;;;;;;5033173;28;20274;-69
2023/02/08 06:00:26;;;;;;;0.50;0.50;;;-1.80;48.90;;;;;;5034464;28;20195;-69
2023/02/08 06:02:51;;;;;;;0.60;0.60;;;-2.00;49.20;;;;;;5034680;28;20202;-69
2023/02/08 06:05:17;;;;;;;0.50;0.50;;;-1.90;49.30;;;;;;5034143;28;20643;-69
2023/02/08 06:07:43;;;;;;;2.90;2.80;;;-1.90;49.10;;;;;;5034411;28;20178;-68
2023/02/08 06:10:09;;;;;;;0.47;0.47;;;-1.80;49.10;;;;;;5034453;28;20429;-69
2023/02/08 06:12:35;;;;;;;0.40;0.40;;;-1.80;48.40;;;;;;5034123;28;20190;-69
2023/02/08 06:15:00;;;;;;;0.50;0.50;;;-1.80;48.60;;;;;;5034129;28;20171;-69
2023/02/08 06:17:26;;;;;;;0.30;0.30;;;-1.70;47.60;;;;;;5034435;28;20653;-69
2023/02/08 06:19:52;;;;;;;0.40;0.40;;;-1.70;49.00;;;;;;5034286;28;20410;-69
2023/02/08 06:22:17;;;;;;;0.40;0.40;;;-1.70;48.60;;;;;;5034128;28;20510;-69
2023/02/08 06:24:47;;;;;;;0.40;0.40;;;-1.80;48.10;;;;;;5030818;28;20198;-69
2023/02/08 06:27:13;;;;;;;0.40;0.40;;;-1.80;48.40;;;;;;5032275;28;20250;-69
2023/02/08 06:29:38;;;;;;;0.40;0.40;;;-1.80;48.90;;;;;;5033474;28;20249;-69
2023/02/08 06:32:04;;;;;;;0.40;0.40;;;-1.80;49.00;;;;;;5033361;28;21020;-69
2023/02/08 06:34:30;;;;;;;0.40;0.40;;;-1.80;48.80;;;;;;5033222;28;20174;-69
2023/02/08 06:36:58;;;;;;;0.40;0.40;;;-1.70;49.40;;;;;;5033268;28;20745;-68
2023/02/08 06:39:24;;;;;;;0.50;0.50;;;-1.80;48.90;;;;;;5033556;28;20542;-69
2023/02/08 06:41:50;;;;;;;0.40;0.40;;;-1.90;49.80;;;;;;5032494;28;20187;-69
2023/02/08 06:44:15;;;;;;;0.40;0.40;;;-1.80;51.30;;;;;;5033761;28;20408;-68
2023/02/08 06:46:41;;;;;;;0.30;0.30;;;-1.80;49.50;;;;;;5033879;28;20286;-69
2023/02/08 06:49:07;;;;;;;0.60;0.60;;;-1.80;49.10;;;;;;5033818;28;20166;-69
2023/02/08 06:51:32;;;;;;;1.13;0.90;;;-1.90;49.10;;;;;;5032977;28;20229;-69
2023/02/08 06:53:58;;;;;;;0.30;0.30;;;-1.80;49.70;;;;;;5034325;28;20170;-69
2023/02/08 06:56:23;;;;;;;0.40;0.40;;;-1.80;49.30;;;;;;5033631;28;20174;-69
2023/02/08 06:58:49;;;;;;;0.40;0.40;;;-1.90;49.00;;;;;;5033811;28;20263;-69
2023/02/08 07:01:15;;;;;;;0.30;0.30;;;-2.10;50.70;;;;;;5034140;28;20187;-69
2023/02/08 07:03:41;;;;;;;0.40;0.40;;;-1.90;50.90;;;;;;5033857;28;20175;-69
2023/02/08 07:06:14;;;;;;;0.33;0.33;;;-2.00;51.30;;;;;;5033275;28;20264;-68
2023/02/08 07:08:41;;;;;;;0.30;0.30;;;-1.90;50.90;;;;;;5034138;28;20249;-69
2023/02/08 07:11:12;;;;;;;0.52;0.52;;;-2.00;51.70;;;;;;5032885;28;20189;-68
2023/02/08 07:13:38;;;;;;;4.22;1.33;;;-1.90;50.70;;;;;;5033620;28;20209;-69
2023/02/08 07:16:05;;;;;;;0.40;0.40;;;-1.80;50.80;;;;;;5033731;28;20241;-69
2023/02/08 07:18:31;;;;;;;0.40;0.40;;;-1.70;51.10;;;;;;5033828;28;20170;-68
2023/02/08 07:20:57;;;;;;;0.30;0.30;;;-1.70;53.10;;;;;;5033943;28;20194;-67
2023/02/08 07:23:22;;;;;;;0.40;0.40;;;-1.60;51.40;;;;;;5033616;28;20517;-69
2023/02/08 07:26:03;;;;;;;0.50;0.50;;;-1.60;50.60;;;;;;5033088;28;20277;-68
2023/02/08 07:28:29;;;;;;;0.50;0.50;;;-1.60;52.90;;;;;;5033654;28;20402;-68
2023/02/08 07:30:55;;;;;;;0.30;0.30;;;-1.70;52.30;;;;;;5033278;28;20191;-69
2023/02/08 07:33:22;;;;;;;0.30;0.30;;;-1.70;52.90;;;;;;5032935;28;20210;-68
2023/02/08 07:35:48;;;;;;;0.60;0.60;;;-1.50;51.10;;;;;;5031891;28;20413;-68
2023/02/08 07:38:13;;;;;;;2.20;0.97;;;-1.50;53.00;;;;;;5033433;28;20175;-69
2023/02/08 07:40:39;;;;;;;0.30;0.30;;;-1.60;53.00;;;;;;5033032;28;20198;-68
2023/02/08 07:43:05;;;;;;;3.33;1.13;;;-1.50;51.50;;;;;;5033347;28;20175;-68
2023/02/08 07:45:30;;;;;;;0.50;0.50;;;-1.30;52.50;;;;;;5032825;28;20886;-70
2023/02/08 07:47:56;;;;;;;0.70;0.60;;;-1.00;89.80;;;;;;5033250;28;20193;-70
2023/02/08 07:50:22;;;;;;;0.30;0.30;;;0.50;99.90;;;;;;5033276;28;20267;-71
2023/02/08 07:52:48;;;;;;;0.40;0.40;;;1.90;99.90;;;;;;5032821;28;20173;-70
2023/02/08 07:55:19;;;;;;;0.30;0.30;;;3.20;99.90;;;;;;5031648;28;20481;-69
2023/02/08 07:57:46;;;;;;;0.40;0.40;;;4.30;99.90;;;;;;5033383;28;20217;-70
2023/02/08 08:00:13;;;;;;;0.40;0.40;;;5.30;96.50;;;;;;5032531;28;20202;-70
2023/02/08 08:02:39;;;;;;;0.40;0.40;;;6.00;62.70;;;;;;5031826;28;20168;-70
2023/02/08 08:05:05;;;;;;;0.40;0.40;;;6.20;47.60;;;;;;5031997;28;20195;-71
2023/02/08 08:07:31;;;;;;;0.40;0.40;;;6.60;42.80;;;;;;5032896;28;20415;-71
2023/02/08 08:09:57;;;;;;;0.70;0.70;;;7.40;39.90;;;;;;5031246;28;20197;-71
2023/02/08 08:12:23;;;;;;;0.40;0.40;;;7.80;37.90;;;;;;5032373;28;20187;-71
2023/02/08 08:14:49;;;;;;;0.60;0.60;;;8.40;37.60;;;;;;5033086;28;20172;-71
2023/02/08 08:17:16;;;;;;;1.08;0.80;;;9.10;35.40;;;;;;5032817;28;20282;-71
2023/02/08 08:19:42;;;;;;;1.03;0.70;;;9.20;35.30;;;;;;5032733;28;20187;-71
2023/02/08 08:22:08;;;;;;;0.57;0.57;;;9.60;33.60;;;;;;5034892;28;20547;-71
2023/02/08 08:24:34;;;;;;;6.27;1.70;;;9.70;32.10;;;;;;5035323;28;20640;-71
2023/02/08 08:27:01;;;;;;;1.27;0.90;;;10.10;31.50;;;;;;5035010;28;20444;-71
2023/02/08 08:29:27;;;;;;;0.40;0.40;;;8.20;30.90;;;;;;5036101;28;20393;-70
2023/02/08 08:31:53;;;;;;;1.13;1.13;;;7.30;32.80;;;;;;5036493;28;20187;-71
2023/02/08 08:34:18;;;;;;;1.80;0.87;;;7.70;32.80;;;;;;5033858;28;20179;-70
2023/02/08 08:36:44;;;;;;;0.80;0.80;;;7.50;31.80;;;;;;5036026;28;20228;-71
2023/02/08 08:39:10;;;;;;;0.30;0.30;;;7.90;33.30;;;;;;5036365;28;20233;-69
2023/02/08 08:41:36;;;;;;;0.47;0.47;;;8.90;32.70;;;;;;5036120;28;20937;-69
2023/02/08 08:44:02;;;;;;;1.27;0.60;;;7.70;31.40;;;;;;5036210;28;20171;-69
2023/02/08 08:46:28;;;;;;;0.90;0.60;;;7.60;32.60;;;;;;5035847;28;20210;-69
2023/02/08 08:48:55;;;;;;;1.17;1.07;;;6.70;32.10;;;;;;5035971;28;20182;-69
2023/02/08 08:51:21;;;;;;;0.40;0.40;;;7.10;33.50;;;;;;5035817;28;20751;-69
2023/02/08 08:53:46;;;;;;;1.13;1.13;;;7.40;32.10;;;;;;5036048;28;20254;-69
2023/02/08 08:56:12;;;;;;;0.40;0.40;;;7.40;31.60;;;;;;5034778;28;20612;-69
2023/02/08 08:58:37;;;;;;;0.90;0.90;;;7.50;31.60;;;;;;5036270;28;20179;-69
2023/02/08 09:01:03;;;;;;;0.40;0.40;;;7.60;30.60;;;;;;5035747;28;20609;-69
2023/02/08 09:03:29;;;;;;;3.60;1.03;;;7.00;30.60;;;;;;5034466;28;20178;-69
2023/02/08 09:05:55;;;;;;;0.40;0.40;;;6.40;33.30;;;;;;5035497;28;20647;-69
2023/02/08 09:08:21;;;;;;;0.40;0.40;;;6.90;32.40;;;;;;5035847;28;20250;-69
2023/02/08 09:10:46;;;;;;;0.40;0.40;;;7.20;30.80;;;;;;5035164;28;20730;-68
2023/02/08 09:13:18;;;;;;;0.40;0.40;;;7.80;31.40;;;;;;5035292;28;20232;-69
2023/02/08 09:15:44;;;;;;;0.47;0.47;;;8.30;30.40;;;;;;5034365;28;20712;-69
2023/02/08 09:18:10;;;;;;;0.50;0.50;;;8.80;29.50;;;;;;5035480;28;20245;-69
2023/02/08 09:20:39;;;;;;;0.40;0.40;;;9.10;29.30;;;;;;5035459;28;20225;-69
2023/02/08 09:23:09;;;;;;;1.27;1.27;;;9.70;30.00;;;;;;5035405;28;20489;-71
2023/02/08 09:25:36;;;;;;;1.13;0.80;;;9.80;28.80;;;;;;5033868;28;20456;-70
2023/02/08 09:28:02;;;;;;;0.60;0.60;;;10.00;28.10;;;;;;5033914;28;20409;-69
2023/02/08 09:30:27;;;;;;;0.30;0.30;;;9.90;28.20;;;;;;5035134;28;20440;-70
2023/02/08 09:32:53;;;;;;;0.70;0.70;;;10.10;27.90;;;;;;5033441;28;20182;-71
2023/02/08 09:35:18;;;;;;;0.40;0.40;;;9.80;28.60;;;;;;5034798;28;20179;-70
2023/02/08 09:37:44;;;;;;;0.50;0.50;;;10.50;27.80;;;;;;5035382;28;20258;-69
2023/02/08 09:40:21;;;;;;;2.10;0.90;;;11.60;27.00;;;;;;5035001;28;20218;-70
2023/02/08 09:43:16;;;;;;;0.50;0.50;;;11.90;26.40;;;;;;5034779;28;20635;-69
2023/02/08 09:45:59;;;;;;;1.13;1.10;;;11.70;26.30;;;;;;5034774;28;20607;-70
2023/02/08 09:48:34;;;;;;;0.40;0.40;;;12.60;25.20;;;;;;5035406;28;20439;-70
2023/02/08 09:51:15;;;;;;;0.60;0.60;;;12.30;25.10;;;;;;5034929;28;20442;-69
2023/02/08 09:53:49;;;;;;;1.00;1.00;;;12.10;25.00;;;;;;5033596;28;20915;-70
2023/02/08 09:56:18;;;;;;;1.90;1.37;;;11.10;25.40;;;;;;5034831;28;20815;-71
2023/02/08 09:58:51;;;;;;;0.47;0.47;;;11.10;25.60;;;;;;5034986;28;20501;-70
2023/02/08 10:01:34;;;;;;;0.47;0.47;;;10.10;26.00;;;;;;5034886;28;20433;-70
2023/02/08 10:04:14;;;;;;;0.90;0.90;;;8.60;27.40;;;;;;5034544;28;20500;-69
2023/02/08 10:06:40;;;;;;;1.47;1.37;;;7.70;27.90;;;;;;5032982;28;20461;-70
2023/02/08 10:09:13;;;;;;;0.40;0.40;;;8.10;28.40;;;;;;5033533;28;20808;-70
2023/02/08 10:11:47;;;;;;;0.60;0.60;;;8.30;29.50;;;;;;5034592;28;20613;-70
2023/02/08 10:14:37;;;;;;;0.40;0.40;;;7.70;28.40;;;;;;5034983;28;20169;-70
2023/02/08 10:17:27;;;;;;;0.60;0.60;;;8.20;28.40;;;;;;5034552;28;20163;-69
2023/02/08 10:19:59;;;;;;;0.38;0.38;;;8.30;28.40;;;;;;5034305;28;20201;-70
2023/02/08 10:22:50;;;;;;;0.40;0.40;;;8.70;28.50;;;;;;5034131;28;20532;-71
2023/02/08 10:25:30;;;;;;;1.30;1.05;;;9.00;27.90;;;;;;5034153;28;20456;-70
2023/02/08 10:28:20;;;;;;;0.65;0.65;;;8.90;27.50;;;;;;5034433;28;20167;-69
2023/02/08 10:30:59;;;;;;;0.63;0.63;;;8.40;28.10;;;;;;5034361;28;20190;-69
2023/02/08 10:33:42;;;;;;;2.80;1.38;;;7.70;28.60;;;;;;5034387;28;20166;-69
2023/02/08 10:36:18;;;;;;;0.88;0.88;;;7.30;29.50;;;;;;5034239;28;20171;-69
2023/02/08 10:38:46;;;;;;;0.50;0.50;;;7.60;29.60;;;;;;5034267;28;20175;-69
2023/02/08 10:41:19;;;;;;;0.50;0.50;;;7.50;29.80;;;;;;5033386;28;20604;-69
2023/02/08 10:44:30;;;;;;;1.20;0.98;;;6.70;30.00;;;;;;5032486;28;20228;-69
2023/02/08 10:47:13;;;;;;;0.40;0.40;;;6.50;31.30;;;;;;5014019;28;20269;-69
2023/02/08 10:49:59;;;;;;;1.60;1.50;;;7.10;31.50;;;;;;5033363;28;20175;-69
2023/02/08 10:52:24;;;;;;;0.38;0.38;;;7.20;31.30;;;;;;5034060;28;20212;-71
2023/02/08 10:54:50;;;;;;;0.87;0.70;;;7.20;30.30;;;;;;5033637;28;20177;-69
2023/02/08 10:57:26;;;;;;;0.50;0.50;;;7.50;30.30;;;;;;5034176;28;20526;-69
2023/02/08 11:00:14;;;;;;;1.40;0.93;;;7.60;29.80;;;;;;5033969;28;20177;-70
2023/02/08 11:02:41;;;;;;;0.30;0.30;;;7.20;29.30;;;;;;5033785;28;20591;-70
2023/02/08 11:05:30;;;;;;;1.75;1.75;;;7.20;29.50;;;;;;5033580;28;20209;-71
2023/02/08 11:08:09;;;;;;;0.60;0.60;;;7.40;29.90;;;;;;5034188;28;20169;-70
2023/02/08 11:10:40;;;;;;;1.77;1.77;;;7.50;29.70;;;;;;5033693;28;20271;-70
2023/02/08 11:13:12;;;;;;;0.50;0.50;;;7.50;29.80;;;;;;5033547;28;20192;-70
2023/02/08 11:15:59;;;;;;;0.50;0.50;;;7.40;30.00;;;;;;5033334;28;20197;-70
2023/02/08 11:18:32;;;;;;;0.40;0.40;;;7.10;30.20;;;;;;5033702;28;20261;-70
2023/02/08 11:21:01;;;;;;;0.77;0.77;;;6.50;30.00;;;;;;5033697;28;20209;-70
2023/02/08 11:23:36;;;;;;;0.68;0.60;;;6.00;30.50;;;;;;5033614;28;20171;-70
2023/02/08 11:26:22;;;;;;;0.70;0.70;;;5.70;31.80;;;;;;5032174;28;20202;-68
2023/02/08 11:29:18;;;;;;;0.40;0.40;;;5.30;32.00;;;;;;5033960;28;20166;-69
2023/02/08 11:31:59;;;;;;;0.75;0.75;;;5.30;31.80;;;;;;5033085;28;20187;-68
2023/02/08 11:34:39;;;;;;;0.60;0.60;;;5.40;32.50;;;;;;5033443;28;20185;-68
2023/02/08 11:37:25;;;;;;;0.40;0.40;;;4.70;33.20;;;;;;5033795;28;20634;-69
2023/02/08 11:40:00;;;;;;;5.85;2.05;;;4.70;33.00;;;;;;5031999;28;20191;-68
2023/02/08 11:42:35;;;;;;;0.80;0.80;;;4.60;34.60;;;;;;5033597;28;20151;-68
2023/02/08 11:45:01;;;;;;;0.70;0.70;;;4.80;35.00;;;;;;5033223;28;20336;-68
2023/02/08 11:47:30;;;;;;;3.17;2.87;;;4.70;33.00;;;;;;5032441;28;20632;-68
2023/02/08 11:49:59;;;;;;;0.50;0.50;;;4.40;34.20;;;;;;5033694;28;20404;-68
2023/02/08 11:52:38;;;;;;;1.92;1.48;;;4.10;33.20;;;;;;5033173;28;20175;-68
2023/02/08 11:55:15;;;;;;;0.50;0.50;;;4.00;33.70;;;;;;5033255;28;20173;-68
2023/02/08 11:58:01;;;;;;;0.88;0.88;;;3.90;34.00;;;;;;5036193;28;20220;-68
2023/02/08 12:00:36;;;;;;;1.25;0.90;;;4.00;34.00;;;;;;5036971;28;20195;-68
2023/02/08 12:03:19;;;;;;;0.50;0.50;;;4.30;34.90;;;;;;5037098;28;20171;-68
2023/02/08 12:06:22;;;;;;;0.40;0.40;;;4.50;35.60;;;;;;5036720;28;20199;-68
2023/02/08 12:08:54;;;;;;;0.40;0.40;;;4.70;33.90;;;;;;5037296;28;20534;-68
2023/02/08 12:11:43;;;;;;;0.50;0.50;;;4.70;33.70;;;;;;5036737;28;20187;-69
2023/02/08 12:14:15;;;;;;;0.52;0.52;;;4.80;34.50;;;;;;5036995;28;20700;-69
2023/02/08 12:16:54;;;;;;;0.40;0.40;;;4.80;33.60;;;;;;5035784;28;20187;-68
2023/02/08 12:19:57;;;;;;;0.80;0.80;;;4.60;32.60;;;;;;5036617;28;20163;-68
2023/02/08 12:22:30;;;;;;;0.40;0.40;;;4.60;33.30;;;;;;5036053;28;20201;-69
2023/02/08 12:25:28;;;;;;;0.40;0.40;;;4.80;33.20;;;;;;5036344;28;20185;-68
2023/02/08 12:27:54;;;;;;;0.82;0.82;;;4.90;32.90;;;;;;5036486;28;20171;-68
2023/02/08 12:30:32;;;;;;;2.80;1.20;;;4.80;32.90;;;;;;5035917;28;20885;-69
2023/02/08 12:33:04;;;;;;;1.70;0.80;;;4.80;32.70;;;;;;5035568;28;20478;-70
2023/02/08 12:35:39;;;;;;;1.10;1.10;;;4.60;38.30;;;;;;5036295;28;20492;-71
2023/02/08 12:41:25;;;;;;;1.95;1.85;;;6.00;41.20;;;;;;5035760;28;20209;-70
2023/02/08 12:44:30;;;;;;;1.13;1.13;;;6.00;33.70;;;;;;5036775;28;20243;-70
2023/02/08 12:47:23;;;;;;;5.65;1.70;;;5.80;31.70;;;;;;5033221;28;20739;-69
2023/02/08 12:50:19;;;;;;;0.45;0.45;;;5.10;32.80;;;;;;5035104;28;20221;-69
2023/02/08 12:52:56;;;;;;;0.40;0.40;;;4.40;33.30;;;;;;5026795;28;20190;-70
2023/02/08 12:55:33;;;;;;;0.63;0.63;;;4.00;33.20;;;;;;5038020;28;20173;-69
2023/02/08 12:58:19;;;;;;;0.40;0.40;;;3.70;34.00;;;;;;5036837;28;20250;-70
2023/02/08 13:00:47;;;;;;;0.60;0.60;;;3.30;35.60;;;;;;5034770;28;20197;-69
2023/02/08 13:03:19;;;;;;;1.20;1.20;;;3.20;35.30;;;;;;5035802;28;20166;-69
2023/02/08 13:05:47;;;;;;;1.42;1.33;;;3.10;35.60;;;;;;5035316;28;20213;-69
2023/02/08 13:08:13;;;;;;;1.13;1.13;;;2.90;37.70;;;;;;5035078;28;20198;-70
2023/02/08 13:10:41;;;;;;;0.30;0.30;;;2.70;37.50;;;;;;5034762;28;20193;-70
2023/02/08 13:13:22;;;;;;;0.30;0.30;;;2.70;35.60;;;;;;5035405;28;20668;-70
2023/02/08 13:15:52;;;;;;;0.40;0.40;;;2.50;36.40;;;;;;5035568;28;20175;-70